DAL55 DNMM-KATL
Flight info
| Callsign | DAL55 |
|---|---|
| Flight time | N/A |
| Altitude | 34000 |
| Route | POLTO1Q POLTO UL433 MONOS DCT NEPRO UN247 LUKDA DCT BKY DCT ERMIT DCT RAMAK UB729 GIA UB600 GULAV DCT LUSTI/N0499F360 UA602 MOGSA DCT SVT/M085F360 DCT VEPOP DCT EKNUT/N0490F380 DCT 21N040W/M085F380 26N050W DCT AYTTE DCT DUNIG/M085F400 L375 GALVN DCT JAINS/N0484F400 Y436 DEDDY DCT HOTHH JJEDI4 |
| Aircraft | A359/H-SDE2E3GHIJ1J3J4J5LM1ORWXY/LB1D1 |
Departure
| Time | 2026-05-09 12:31 |
|---|---|
| Airport | Murtala Muhammed International Airport (DNMM) |
Arrival
| Time | N/A |
|---|---|
| Airport | Hartsfield Jackson Atlanta International Airport (KATL) |
| Time | Latitude | Longitude | Altitude | Speed | Heading |
|---|---|---|---|---|---|
| 2026-05-09 12:13 | 6.58010 | 3.32209 | 101 ft | 0 kts | 114° |
| 2026-05-09 12:24 | 6.58016 | 3.32196 | 101 ft | 2 kts | 119° |
| 2026-05-09 12:24 | 6.58025 | 3.32182 | 100 ft | 2 kts | 126° |
| 2026-05-09 12:24 | 6.58035 | 3.32169 | 99 ft | 2 kts | 138° |
| 2026-05-09 12:24 | 6.58049 | 3.32160 | 100 ft | 2 kts | 158° |
| 2026-05-09 12:25 | 6.58065 | 3.32156 | 100 ft | 2 kts | 182° |
| 2026-05-09 12:25 | 6.58080 | 3.32159 | 99 ft | 2 kts | 200° |
| 2026-05-09 12:25 | 6.58085 | 3.32161 | 100 ft | 0 kts | 203° |
| 2026-05-09 12:27 | 6.58050 | 3.32120 | 117 ft | 12 kts | 250° |
| 2026-05-09 12:27 | 6.58076 | 3.32073 | 103 ft | 9 kts | 341° |
| 2026-05-09 12:27 | 6.58198 | 3.32021 | 103 ft | 19 kts | 323° |
| 2026-05-09 12:27 | 6.58212 | 3.31957 | 103 ft | 6 kts | 255° |
| 2026-05-09 12:28 | 6.58165 | 3.31828 | 102 ft | 31 kts | 247° |
| 2026-05-09 12:28 | 6.58079 | 3.31622 | 89 ft | 34 kts | 251° |
| 2026-05-09 12:28 | 6.58095 | 3.31542 | 87 ft | 10 kts | 326° |
| 2026-05-09 12:28 | 6.58228 | 3.31526 | 87 ft | 25 kts | 359° |
| 2026-05-09 12:29 | 6.58397 | 3.31522 | 88 ft | 23 kts | 360° |
| 2026-05-09 12:29 | 6.58557 | 3.31521 | 87 ft | 23 kts | 359° |
| 2026-05-09 12:29 | 6.58715 | 3.31519 | 86 ft | 23 kts | 359° |
| 2026-05-09 12:29 | 6.58815 | 3.31447 | 85 ft | 14 kts | 265° |
| 2026-05-09 12:30 | 6.58788 | 3.31358 | 87 ft | 13 kts | 244° |
| 2026-05-09 12:30 | 6.58731 | 3.31315 | 87 ft | 8 kts | 180° |
| 2026-05-09 12:30 | 6.58176 | 3.31322 | 86 ft | 90 kts | 179° |
| 2026-05-09 12:31 | 6.57391 | 3.31330 | 67 ft | 135 kts | 180° |
| 2026-05-09 12:31 | 6.55148 | 3.31347 | 671 ft | 161 kts | 180° |
| 2026-05-09 12:31 | 6.54000 | 3.31363 | 1048 ft | 168 kts | 179° |
| 2026-05-09 12:32 | 6.52816 | 3.31212 | 1298 ft | 178 kts | 198° |
| 2026-05-09 12:32 | 6.51814 | 3.30434 | 1397 ft | 193 kts | 237° |
| 2026-05-09 12:32 | 6.51459 | 3.29115 | 1635 ft | 201 kts | 265° |
| 2026-05-09 12:32 | 6.51436 | 3.27692 | 1966 ft | 205 kts | 269° |
| 2026-05-09 12:33 | 6.51445 | 3.26251 | 2343 ft | 207 kts | 269° |
| 2026-05-09 12:33 | 6.51444 | 3.24802 | 2733 ft | 208 kts | 268° |
| 2026-05-09 12:33 | 6.51434 | 3.23342 | 3085 ft | 210 kts | 268° |
| 2026-05-09 12:33 | 6.51404 | 3.21861 | 3404 ft | 216 kts | 266° |
| 2026-05-09 12:34 | 6.51326 | 3.20320 | 3608 ft | 224 kts | 265° |
| 2026-05-09 12:34 | 6.51236 | 3.18720 | 3793 ft | 237 kts | 265° |
| 2026-05-09 12:34 | 6.51142 | 3.17008 | 3891 ft | 253 kts | 265° |
| 2026-05-09 12:34 | 6.51045 | 3.15188 | 4072 ft | 267 kts | 266° |
| 2026-05-09 12:35 | 6.50949 | 3.13303 | 4428 ft | 273 kts | 266° |
| 2026-05-09 12:35 | 6.50851 | 3.11388 | 4852 ft | 276 kts | 266° |
| 2026-05-09 12:35 | 6.50751 | 3.09444 | 5240 ft | 280 kts | 266° |
| 2026-05-09 12:35 | 6.50656 | 3.07473 | 5624 ft | 285 kts | 266° |
| 2026-05-09 12:36 | 6.50566 | 3.05472 | 6036 ft | 288 kts | 267° |
| 2026-05-09 12:36 | 6.50475 | 3.03447 | 6422 ft | 292 kts | 267° |
| 2026-05-09 12:36 | 6.50382 | 3.01394 | 6789 ft | 296 kts | 267° |
| 2026-05-09 12:36 | 6.50287 | 2.99307 | 7142 ft | 301 kts | 267° |
| 2026-05-09 12:37 | 6.50190 | 2.97192 | 7527 ft | 304 kts | 267° |
| 2026-05-09 12:37 | 6.50094 | 2.95079 | 7889 ft | 308 kts | 268° |
| 2026-05-09 12:37 | 6.49995 | 2.92909 | 8281 ft | 312 kts | 268° |
| 2026-05-09 12:37 | 6.49894 | 2.90715 | 8654 ft | 317 kts | 268° |
| 2026-05-09 12:38 | 6.49792 | 2.88487 | 9045 ft | 320 kts | 268° |
| 2026-05-09 12:38 | 6.49688 | 2.86238 | 9419 ft | 325 kts | 268° |
| 2026-05-09 12:38 | 6.49583 | 2.83953 | 9794 ft | 329 kts | 268° |
| 2026-05-09 12:38 | 6.49477 | 2.81639 | 10103 ft | 334 kts | 268° |
| 2026-05-09 12:39 | 6.49368 | 2.79269 | 10263 ft | 345 kts | 269° |
| 2026-05-09 12:39 | 6.49253 | 2.76815 | 10428 ft | 357 kts | 268° |
| 2026-05-09 12:39 | 6.48898 | 2.74313 | 10580 ft | 368 kts | 257° |
| 2026-05-09 12:39 | 6.48196 | 2.71802 | 10745 ft | 378 kts | 251° |
| 2026-05-09 12:40 | 6.47311 | 2.69274 | 10933 ft | 388 kts | 249° |
| 2026-05-09 12:40 | 6.46330 | 2.66706 | 11113 ft | 398 kts | 248° |
| 2026-05-09 12:40 | 6.45313 | 2.64087 | 11296 ft | 407 kts | 248° |
| 2026-05-09 12:40 | 6.44283 | 2.61406 | 11451 ft | 415 kts | 248° |
| 2026-05-09 12:41 | 6.43254 | 2.58676 | 11642 ft | 421 kts | 249° |
| 2026-05-09 12:41 | 6.42231 | 2.55909 | 11968 ft | 423 kts | 249° |
| 2026-05-09 12:41 | 6.41214 | 2.53126 | 12317 ft | 425 kts | 249° |
| 2026-05-09 12:41 | 6.40214 | 2.50372 | 12675 ft | 425 kts | 249° |
| 2026-05-09 12:42 | 6.39186 | 2.47536 | 13015 ft | 427 kts | 249° |
| 2026-05-09 12:42 | 6.38168 | 2.44725 | 13356 ft | 428 kts | 249° |
| 2026-05-09 12:42 | 6.37147 | 2.41910 | 13698 ft | 430 kts | 249° |
| 2026-05-09 12:42 | 6.36312 | 2.39019 | 13991 ft | 432 kts | 257° |
| 2026-05-09 12:43 | 6.35708 | 2.36095 | 14279 ft | 433 kts | 259° |
| 2026-05-09 12:43 | 6.35180 | 2.33113 | 14569 ft | 434 kts | 260° |
| 2026-05-09 12:43 | 6.34698 | 2.30105 | 14870 ft | 436 kts | 261° |
| 2026-05-09 12:43 | 6.34237 | 2.27092 | 15163 ft | 437 kts | 261° |
| 2026-05-09 12:44 | 6.33779 | 2.24063 | 15461 ft | 438 kts | 261° |
| 2026-05-09 12:44 | 6.33317 | 2.21031 | 15738 ft | 440 kts | 261° |
| 2026-05-09 12:44 | 6.32847 | 2.17984 | 16026 ft | 441 kts | 261° |
| 2026-05-09 12:44 | 6.32371 | 2.14930 | 16285 ft | 443 kts | 261° |
| 2026-05-09 12:45 | 6.31890 | 2.11867 | 16574 ft | 444 kts | 261° |
| 2026-05-09 12:45 | 6.31405 | 2.08792 | 16839 ft | 446 kts | 261° |
| 2026-05-09 12:45 | 6.30918 | 2.05710 | 17111 ft | 447 kts | 261° |
| 2026-05-09 12:45 | 6.30428 | 2.02612 | 17371 ft | 449 kts | 261° |
| 2026-05-09 12:46 | 6.29937 | 1.99506 | 17635 ft | 451 kts | 261° |
| 2026-05-09 12:46 | 6.29443 | 1.96388 | 17886 ft | 452 kts | 261° |
| 2026-05-09 12:46 | 6.28949 | 1.93263 | 18142 ft | 454 kts | 261° |
| 2026-05-09 12:46 | 6.28453 | 1.90127 | 18368 ft | 455 kts | 261° |
| 2026-05-09 12:47 | 6.27955 | 1.86982 | 18583 ft | 457 kts | 261° |
| 2026-05-09 12:47 | 6.27469 | 1.83865 | 18777 ft | 459 kts | 262° |
| 2026-05-09 12:47 | 6.27208 | 1.80668 | 18981 ft | 460 kts | 269° |
| 2026-05-09 12:47 | 6.27414 | 1.77454 | 19168 ft | 461 kts | 279° |
| 2026-05-09 12:48 | 6.28139 | 1.74316 | 19372 ft | 462 kts | 287° |
| 2026-05-09 12:48 | 6.29111 | 1.71233 | 19559 ft | 463 kts | 290° |
| 2026-05-09 12:48 | 6.30205 | 1.68182 | 19763 ft | 465 kts | 291° |
| 2026-05-09 12:48 | 6.31359 | 1.65142 | 19963 ft | 466 kts | 292° |
| 2026-05-09 12:49 | 6.32532 | 1.62096 | 20169 ft | 468 kts | 292° |
| 2026-05-09 12:49 | 6.33704 | 1.59040 | 20364 ft | 469 kts | 292° |
| 2026-05-09 12:49 | 6.34868 | 1.55969 | 20562 ft | 471 kts | 292° |
| 2026-05-09 12:49 | 6.36026 | 1.52882 | 20734 ft | 473 kts | 291° |
| 2026-05-09 12:50 | 6.37180 | 1.49780 | 20922 ft | 475 kts | 291° |
| 2026-05-09 12:50 | 6.38333 | 1.46668 | 21108 ft | 476 kts | 291° |
| 2026-05-09 12:50 | 6.39489 | 1.43542 | 21297 ft | 478 kts | 291° |
| 2026-05-09 12:50 | 6.40647 | 1.40407 | 21477 ft | 479 kts | 291° |
| 2026-05-09 12:51 | 6.41414 | 1.38330 | 21593 ft | 480 kts | 291° |
| 2026-05-09 12:51 | 6.42580 | 1.35176 | 21777 ft | 482 kts | 291° |
| 2026-05-09 12:51 | 6.43750 | 1.32010 | 21954 ft | 483 kts | 291° |
| 2026-05-09 12:51 | 6.44938 | 1.28795 | 22155 ft | 485 kts | 291° |
| 2026-05-09 12:52 | 6.46097 | 1.25657 | 22367 ft | 486 kts | 291° |
| 2026-05-09 12:52 | 6.47293 | 1.22415 | 22541 ft | 489 kts | 291° |
| 2026-05-09 12:52 | 6.48464 | 1.19248 | 22767 ft | 490 kts | 291° |
| 2026-05-09 12:52 | 6.49652 | 1.16034 | 22932 ft | 491 kts | 291° |
| 2026-05-09 12:53 | 6.50844 | 1.12809 | 23075 ft | 493 kts | 291° |
| 2026-05-09 12:53 | 6.52041 | 1.09568 | 23221 ft | 495 kts | 291° |
| 2026-05-09 12:53 | 6.53242 | 1.06316 | 23397 ft | 497 kts | 291° |
| 2026-05-09 12:53 | 6.54445 | 1.03059 | 23565 ft | 498 kts | 291° |
| 2026-05-09 12:54 | 6.55652 | 0.99787 | 23708 ft | 499 kts | 291° |
| 2026-05-09 12:54 | 6.56860 | 0.96514 | 23862 ft | 499 kts | 291° |
| 2026-05-09 12:54 | 6.58067 | 0.93241 | 24014 ft | 500 kts | 291° |
| 2026-05-09 12:54 | 6.59277 | 0.89957 | 24174 ft | 501 kts | 291° |
| 2026-05-09 12:55 | 6.60488 | 0.86674 | 24319 ft | 501 kts | 291° |
| 2026-05-09 12:55 | 6.61701 | 0.83382 | 24462 ft | 502 kts | 291° |
| 2026-05-09 12:55 | 6.62915 | 0.80086 | 24597 ft | 503 kts | 291° |
| 2026-05-09 12:55 | 6.64133 | 0.76782 | 24744 ft | 503 kts | 291° |
| 2026-05-09 12:56 | 6.65351 | 0.73476 | 24878 ft | 504 kts | 291° |
| 2026-05-09 12:56 | 6.66570 | 0.70166 | 25020 ft | 505 kts | 291° |
| 2026-05-09 12:56 | 6.67790 | 0.66851 | 25168 ft | 506 kts | 291° |
| 2026-05-09 12:56 | 6.68933 | 0.63498 | 25309 ft | 507 kts | 287° |
| 2026-05-09 12:57 | 6.69857 | 0.60076 | 25444 ft | 508 kts | 285° |
| 2026-05-09 12:57 | 6.70714 | 0.56666 | 25586 ft | 509 kts | 285° |
| 2026-05-09 12:57 | 6.71558 | 0.53160 | 25734 ft | 510 kts | 284° |
| 2026-05-09 12:57 | 6.72365 | 0.49735 | 25879 ft | 510 kts | 284° |
| 2026-05-09 12:58 | 6.73190 | 0.46211 | 26014 ft | 511 kts | 284° |
| 2026-05-09 12:58 | 6.73995 | 0.42774 | 26158 ft | 512 kts | 284° |
| 2026-05-09 12:58 | 6.74814 | 0.39288 | 26315 ft | 512 kts | 284° |
| 2026-05-09 12:58 | 6.75639 | 0.35797 | 26471 ft | 513 kts | 284° |
| 2026-05-09 12:59 | 6.76465 | 0.32302 | 26636 ft | 513 kts | 284° |
| 2026-05-09 12:59 | 6.77293 | 0.28805 | 26758 ft | 514 kts | 284° |
| 2026-05-09 12:59 | 6.78124 | 0.25297 | 26908 ft | 515 kts | 284° |
| 2026-05-09 12:59 | 6.78955 | 0.21792 | 27054 ft | 516 kts | 284° |
| 2026-05-09 13:00 | 6.79787 | 0.18280 | 27196 ft | 517 kts | 284° |
| 2026-05-09 13:00 | 6.80623 | 0.14760 | 27285 ft | 518 kts | 284° |
| 2026-05-09 13:00 | 6.81458 | 0.11233 | 27455 ft | 518 kts | 284° |
| 2026-05-09 13:00 | 6.82290 | 0.07707 | 27596 ft | 518 kts | 284° |
| 2026-05-09 13:01 | 6.83125 | 0.04170 | 27734 ft | 519 kts | 284° |
| 2026-05-09 13:01 | 6.83960 | 0.00633 | 27868 ft | 520 kts | 284° |
| 2026-05-09 13:01 | 6.84797 | -0.02910 | 27999 ft | 520 kts | 284° |
| 2026-05-09 13:01 | 6.85634 | -0.06454 | 28112 ft | 521 kts | 284° |
| 2026-05-09 13:02 | 6.86461 | -0.09960 | 28237 ft | 522 kts | 284° |
| 2026-05-09 13:02 | 6.87299 | -0.13511 | 28354 ft | 523 kts | 284° |
| 2026-05-09 13:02 | 6.88139 | -0.17072 | 28467 ft | 523 kts | 284° |
| 2026-05-09 13:02 | 6.88979 | -0.20637 | 28590 ft | 524 kts | 284° |
| 2026-05-09 13:03 | 6.89819 | -0.24203 | 28710 ft | 524 kts | 284° |
| 2026-05-09 13:03 | 6.90661 | -0.27774 | 28813 ft | 525 kts | 284° |
| 2026-05-09 13:03 | 6.91503 | -0.31348 | 28909 ft | 525 kts | 284° |
| 2026-05-09 13:04 | 6.93190 | -0.38514 | 29102 ft | 526 kts | 284° |
| 2026-05-09 13:04 | 6.94882 | -0.45694 | 29281 ft | 528 kts | 284° |
| 2026-05-09 13:05 | 6.96573 | -0.52894 | 29487 ft | 528 kts | 284° |
| 2026-05-09 13:05 | 6.97417 | -0.56490 | 29618 ft | 528 kts | 284° |
| 2026-05-09 13:05 | 6.98260 | -0.60086 | 29770 ft | 527 kts | 284° |
| 2026-05-09 13:05 | 6.99091 | -0.63627 | 29902 ft | 526 kts | 284° |
| 2026-05-09 13:06 | 6.99932 | -0.67209 | 30048 ft | 525 kts | 284° |
| 2026-05-09 13:06 | 7.00771 | -0.70787 | 30162 ft | 525 kts | 284° |
| 2026-05-09 13:06 | 7.01609 | -0.74361 | 30277 ft | 525 kts | 284° |
| 2026-05-09 13:06 | 7.02448 | -0.77937 | 30408 ft | 524 kts | 284° |
| 2026-05-09 13:07 | 7.03282 | -0.81498 | 30603 ft | 522 kts | 284° |
| 2026-05-09 13:07 | 7.04114 | -0.85048 | 30739 ft | 521 kts | 284° |
| 2026-05-09 13:07 | 7.04946 | -0.88603 | 30854 ft | 521 kts | 284° |
| 2026-05-09 13:07 | 7.05776 | -0.92148 | 30978 ft | 521 kts | 284° |
| 2026-05-09 13:08 | 7.06606 | -0.95693 | 31106 ft | 520 kts | 284° |
| 2026-05-09 13:08 | 7.07435 | -0.99239 | 31235 ft | 520 kts | 284° |
| 2026-05-09 13:08 | 7.08263 | -1.02777 | 31368 ft | 519 kts | 284° |
| 2026-05-09 13:08 | 7.09090 | -1.06314 | 31501 ft | 519 kts | 284° |
| 2026-05-09 13:09 | 7.09915 | -1.09848 | 31633 ft | 518 kts | 284° |
| 2026-05-09 13:09 | 7.10739 | -1.13376 | 31766 ft | 518 kts | 284° |
| 2026-05-09 13:09 | 7.11563 | -1.16902 | 31896 ft | 517 kts | 284° |
| 2026-05-09 13:09 | 7.12385 | -1.20424 | 32041 ft | 516 kts | 284° |
| 2026-05-09 13:10 | 7.13205 | -1.23939 | 32184 ft | 516 kts | 284° |
| 2026-05-09 13:10 | 7.14025 | -1.27453 | 32294 ft | 515 kts | 284° |
| 2026-05-09 13:10 | 7.14843 | -1.30962 | 32437 ft | 515 kts | 284° |
| 2026-05-09 13:10 | 7.15661 | -1.34469 | 32557 ft | 514 kts | 284° |
| 2026-05-09 13:11 | 7.16477 | -1.37973 | 32701 ft | 514 kts | 284° |
| 2026-05-09 13:11 | 7.17292 | -1.41472 | 32830 ft | 513 kts | 284° |
| 2026-05-09 13:11 | 7.18107 | -1.44971 | 32966 ft | 513 kts | 284° |
| 2026-05-09 13:11 | 7.18910 | -1.48421 | 33119 ft | 512 kts | 284° |
| 2026-05-09 13:12 | 7.19722 | -1.51911 | 33247 ft | 512 kts | 284° |
| 2026-05-09 13:12 | 7.20532 | -1.55394 | 33393 ft | 511 kts | 284° |
| 2026-05-09 13:12 | 7.21342 | -1.58879 | 33538 ft | 511 kts | 284° |
| 2026-05-09 13:12 | 7.22152 | -1.62362 | 33668 ft | 510 kts | 284° |
| 2026-05-09 13:13 | 7.22959 | -1.65837 | 33813 ft | 509 kts | 284° |
| 2026-05-09 13:13 | 7.23765 | -1.69307 | 33932 ft | 509 kts | 284° |
| 2026-05-09 13:13 | 7.24573 | -1.72787 | 33966 ft | 512 kts | 284° |
| 2026-05-09 13:14 | 7.26201 | -1.79803 | 33970 ft | 515 kts | 284° |
| 2026-05-09 13:16 | 7.32709 | -2.07903 | 33958 ft | 515 kts | 284° |
| 2026-05-09 13:16 | 7.34333 | -2.14927 | 33958 ft | 515 kts | 284° |
| 2026-05-09 13:17 | 7.35956 | -2.21954 | 33954 ft | 515 kts | 284° |
| 2026-05-09 13:17 | 7.37538 | -2.28988 | 33950 ft | 515 kts | 280° |
| 2026-05-09 13:18 | 7.38549 | -2.36132 | 33956 ft | 514 kts | 278° |
| 2026-05-09 13:18 | 7.39425 | -2.43278 | 33956 ft | 514 kts | 277° |
| 2026-05-09 13:19 | 7.40277 | -2.50429 | 33952 ft | 514 kts | 277° |
| 2026-05-09 13:19 | 7.41130 | -2.57534 | 33951 ft | 514 kts | 277° |
| 2026-05-09 13:20 | 7.41994 | -2.64681 | 33951 ft | 514 kts | 277° |
| 2026-05-09 13:20 | 7.42861 | -2.71836 | 33948 ft | 515 kts | 277° |
| 2026-05-09 13:21 | 7.43727 | -2.79007 | 33947 ft | 516 kts | 277° |
| 2026-05-09 13:21 | 7.44592 | -2.86180 | 33945 ft | 516 kts | 277° |
| 2026-05-09 13:22 | 7.45458 | -2.93356 | 33949 ft | 516 kts | 277° |
| 2026-05-09 13:22 | 7.46423 | -3.00518 | 33947 ft | 516 kts | 278° |
| 2026-05-09 13:23 | 7.48959 | -3.18421 | 33944 ft | 516 kts | 278° |
| 2026-05-09 13:24 | 7.49950 | -3.25576 | 33942 ft | 516 kts | 278° |
| 2026-05-09 13:24 | 7.50941 | -3.32748 | 33940 ft | 516 kts | 278° |
| 2026-05-09 13:25 | 7.51931 | -3.39919 | 33936 ft | 517 kts | 278° |
| 2026-05-09 13:26 | 7.53415 | -3.50686 | 33936 ft | 517 kts | 278° |
| 2026-05-09 13:26 | 7.54406 | -3.57875 | 33934 ft | 518 kts | 278° |
| 2026-05-09 13:27 | 7.55389 | -3.65018 | 33930 ft | 518 kts | 278° |
| 2026-05-09 13:27 | 7.56376 | -3.72207 | 33932 ft | 518 kts | 278° |
| 2026-05-09 13:28 | 7.57361 | -3.79387 | 33931 ft | 517 kts | 278° |
| 2026-05-09 13:28 | 7.58343 | -3.86554 | 33930 ft | 516 kts | 278° |
| 2026-05-09 13:29 | 7.59325 | -3.93728 | 33933 ft | 517 kts | 278° |
| 2026-05-09 13:29 | 7.60306 | -4.00902 | 33928 ft | 517 kts | 278° |
| 2026-05-09 13:30 | 7.61286 | -4.08079 | 33931 ft | 517 kts | 278° |
| 2026-05-09 13:30 | 7.62264 | -4.15255 | 33931 ft | 517 kts | 278° |
| 2026-05-09 13:31 | 7.63241 | -4.22432 | 33926 ft | 517 kts | 278° |
| 2026-05-09 13:31 | 7.64218 | -4.29608 | 33933 ft | 517 kts | 278° |
| 2026-05-09 13:32 | 7.65186 | -4.36737 | 33930 ft | 517 kts | 278° |
| 2026-05-09 13:32 | 7.66645 | -4.47496 | 33924 ft | 517 kts | 278° |
| 2026-05-09 13:33 | 7.67617 | -4.54672 | 33929 ft | 517 kts | 278° |
| 2026-05-09 13:33 | 7.68587 | -4.61842 | 33930 ft | 515 kts | 277° |
| 2026-05-09 13:34 | 7.69550 | -4.68970 | 33934 ft | 512 kts | 277° |
| 2026-05-09 13:34 | 7.70508 | -4.76076 | 33936 ft | 512 kts | 277° |
| 2026-05-09 13:35 | 7.71467 | -4.83191 | 33935 ft | 512 kts | 277° |
| 2026-05-09 13:35 | 7.72423 | -4.90298 | 33937 ft | 512 kts | 277° |
| 2026-05-09 13:36 | 7.73379 | -4.97414 | 33940 ft | 512 kts | 278° |
| 2026-05-09 13:36 | 7.74335 | -5.04538 | 33939 ft | 513 kts | 278° |
| 2026-05-09 13:37 | 7.75377 | -5.11656 | 33939 ft | 514 kts | 281° |
| 2026-05-09 13:37 | 7.76797 | -5.18669 | 33941 ft | 513 kts | 282° |
| 2026-05-09 13:38 | 7.78281 | -5.25708 | 33939 ft | 514 kts | 282° |
| 2026-05-09 13:38 | 7.79710 | -5.32761 | 33940 ft | 514 kts | 281° |
| 2026-05-09 13:39 | 7.81103 | -5.39829 | 33936 ft | 514 kts | 281° |
| 2026-05-09 13:39 | 7.82253 | -5.45708 | 33935 ft | 514 kts | 281° |
| 2026-05-09 13:40 | 7.83638 | -5.52784 | 33939 ft | 514 kts | 281° |
| 2026-05-09 13:40 | 7.85257 | -5.61052 | 33938 ft | 514 kts | 281° |
| 2026-05-09 13:41 | 7.86408 | -5.66932 | 33935 ft | 514 kts | 281° |
| 2026-05-09 13:41 | 7.87791 | -5.74006 | 33938 ft | 515 kts | 281° |
| 2026-05-09 13:42 | 7.89188 | -5.81150 | 33937 ft | 521 kts | 281° |
| 2026-05-09 13:42 | 7.90586 | -5.88311 | 33937 ft | 520 kts | 281° |
| 2026-05-09 13:43 | 7.91982 | -5.95470 | 33938 ft | 520 kts | 281° |
| 2026-05-09 13:43 | 7.93378 | -6.02626 | 33939 ft | 520 kts | 281° |
| 2026-05-09 13:44 | 7.94776 | -6.09802 | 33938 ft | 521 kts | 280° |
| 2026-05-09 13:44 | 7.96166 | -6.16955 | 33937 ft | 519 kts | 280° |
| 2026-05-09 13:45 | 7.97558 | -6.24124 | 33932 ft | 523 kts | 280° |
| 2026-05-09 13:45 | 7.98953 | -6.31313 | 33936 ft | 528 kts | 280° |
| 2026-05-09 13:46 | 8.00366 | -6.38595 | 33933 ft | 531 kts | 280° |
| 2026-05-09 13:46 | 8.01785 | -6.45920 | 33934 ft | 532 kts | 280° |
| 2026-05-09 13:47 | 8.03203 | -6.53247 | 33933 ft | 532 kts | 280° |
| 2026-05-09 13:47 | 8.04619 | -6.60568 | 33937 ft | 532 kts | 280° |
| 2026-05-09 13:48 | 8.06034 | -6.67897 | 33940 ft | 532 kts | 280° |
| 2026-05-09 13:48 | 8.07447 | -6.75219 | 33932 ft | 532 kts | 280° |
| 2026-05-09 13:49 | 8.08860 | -6.82546 | 33934 ft | 532 kts | 280° |
| 2026-05-09 13:49 | 8.10270 | -6.89869 | 33934 ft | 531 kts | 280° |
| 2026-05-09 13:50 | 8.11677 | -6.97180 | 33932 ft | 531 kts | 280° |
| 2026-05-09 13:50 | 8.13082 | -7.04493 | 33940 ft | 531 kts | 280° |
| 2026-05-09 13:51 | 8.14486 | -7.11803 | 33936 ft | 531 kts | 280° |
| 2026-05-09 13:51 | 8.15888 | -7.19118 | 33940 ft | 531 kts | 280° |
| 2026-05-09 13:52 | 8.17292 | -7.26438 | 33942 ft | 531 kts | 280° |
| 2026-05-09 13:52 | 8.18693 | -7.33755 | 33941 ft | 531 kts | 280° |
| 2026-05-09 13:53 | 8.20083 | -7.41025 | 33945 ft | 531 kts | 280° |
| 2026-05-09 13:53 | 8.21480 | -7.48339 | 33943 ft | 531 kts | 280° |
| 2026-05-09 13:54 | 8.22880 | -7.55669 | 33943 ft | 531 kts | 280° |
| 2026-05-09 13:54 | 8.24274 | -7.62988 | 33943 ft | 531 kts | 281° |
| 2026-05-09 13:55 | 8.25672 | -7.70325 | 33947 ft | 532 kts | 281° |
| 2026-05-09 13:55 | 8.27068 | -7.77661 | 33951 ft | 532 kts | 281° |
| 2026-05-09 13:56 | 8.28461 | -7.84990 | 33943 ft | 531 kts | 281° |
| 2026-05-09 13:56 | 8.29853 | -7.92317 | 33946 ft | 531 kts | 281° |
| 2026-05-09 13:57 | 8.31233 | -7.99590 | 33949 ft | 530 kts | 281° |
| 2026-05-09 13:57 | 8.32621 | -8.06915 | 33949 ft | 531 kts | 281° |
| 2026-05-09 13:58 | 8.34005 | -8.14230 | 33946 ft | 530 kts | 281° |
| 2026-05-09 13:58 | 8.35389 | -8.21546 | 33949 ft | 531 kts | 281° |
| 2026-05-09 13:59 | 8.36593 | -8.28897 | 33952 ft | 530 kts | 274° |
| 2026-05-09 13:59 | 8.37058 | -8.36331 | 33955 ft | 531 kts | 273° |
| 2026-05-09 14:00 | 8.37285 | -8.41316 | 33960 ft | 532 kts | 272° |
| 2026-05-09 14:00 | 8.37698 | -8.51256 | 33962 ft | 533 kts | 272° |
| 2026-05-09 14:01 | 8.38018 | -8.58735 | 33961 ft | 533 kts | 272° |
| 2026-05-09 14:01 | 8.38344 | -8.66210 | 33962 ft | 533 kts | 272° |
| 2026-05-09 14:02 | 8.38672 | -8.73681 | 33962 ft | 533 kts | 272° |
| 2026-05-09 14:02 | 8.38997 | -8.81136 | 33964 ft | 535 kts | 272° |
| 2026-05-09 14:03 | 8.39323 | -8.88653 | 33959 ft | 536 kts | 272° |
| 2026-05-09 14:03 | 8.39648 | -8.96185 | 33963 ft | 537 kts | 272° |
| 2026-05-09 14:04 | 8.39973 | -9.03771 | 33963 ft | 537 kts | 272° |
| 2026-05-09 14:04 | 8.40294 | -9.11251 | 33965 ft | 537 kts | 271° |
| 2026-05-09 14:05 | 8.40615 | -9.18784 | 33963 ft | 537 kts | 271° |
| 2026-05-09 14:05 | 8.40934 | -9.26315 | 33963 ft | 537 kts | 271° |
| 2026-05-09 14:06 | 8.41252 | -9.33846 | 33965 ft | 537 kts | 271° |
| 2026-05-09 14:06 | 8.41568 | -9.41384 | 33964 ft | 537 kts | 271° |
| 2026-05-09 14:07 | 8.41883 | -9.48923 | 33966 ft | 538 kts | 272° |
| 2026-05-09 14:07 | 8.42197 | -9.56489 | 33966 ft | 540 kts | 272° |
| 2026-05-09 14:08 | 8.42512 | -9.64077 | 33965 ft | 541 kts | 272° |
| 2026-05-09 14:08 | 8.42825 | -9.71680 | 33966 ft | 542 kts | 272° |
| 2026-05-09 14:09 | 8.43137 | -9.79280 | 33962 ft | 542 kts | 272° |
| 2026-05-09 14:09 | 8.43447 | -9.86880 | 33961 ft | 541 kts | 272° |
| 2026-05-09 14:10 | 8.43909 | -9.98256 | 33960 ft | 540 kts | 272° |
| 2026-05-09 14:11 | 8.44213 | -10.05781 | 33957 ft | 540 kts | 272° |
| 2026-05-09 14:11 | 8.44517 | -10.13356 | 33956 ft | 540 kts | 272° |
| 2026-05-09 14:12 | 8.44820 | -10.20927 | 33954 ft | 540 kts | 272° |
| 2026-05-09 14:12 | 8.45122 | -10.28510 | 33946 ft | 539 kts | 272° |
| 2026-05-09 14:13 | 8.45421 | -10.36076 | 33952 ft | 539 kts | 272° |
| 2026-05-09 14:15 | 8.46604 | -10.66304 | 33944 ft | 540 kts | 272° |
| 2026-05-09 14:15 | 8.46897 | -10.73883 | 33942 ft | 540 kts | 272° |
| 2026-05-09 14:16 | 8.47188 | -10.81458 | 33937 ft | 540 kts | 272° |
| 2026-05-09 14:16 | 8.47478 | -10.89035 | 33942 ft | 540 kts | 272° |
| 2026-05-09 14:17 | 8.47766 | -10.96613 | 33944 ft | 540 kts | 272° |
| 2026-05-09 14:17 | 8.48054 | -11.04206 | 33940 ft | 541 kts | 272° |
| 2026-05-09 14:18 | 8.48783 | -11.11752 | 33941 ft | 540 kts | 284° |
| 2026-05-09 14:18 | 8.51178 | -11.18924 | 33940 ft | 539 kts | 292° |
| 2026-05-09 14:19 | 8.53974 | -11.25946 | 33940 ft | 539 kts | 293° |
| 2026-05-09 14:19 | 8.56829 | -11.32955 | 33938 ft | 539 kts | 293° |
| 2026-05-09 14:20 | 8.59660 | -11.39973 | 33938 ft | 540 kts | 293° |
| 2026-05-09 14:20 | 8.62452 | -11.46953 | 33939 ft | 540 kts | 293° |
| 2026-05-09 14:21 | 8.66660 | -11.57504 | 33938 ft | 540 kts | 292° |
| 2026-05-09 14:21 | 8.69465 | -11.64538 | 33937 ft | 539 kts | 292° |
| 2026-05-09 14:22 | 8.72268 | -11.71573 | 33933 ft | 540 kts | 292° |
| 2026-05-09 14:22 | 8.75071 | -11.78612 | 33929 ft | 540 kts | 292° |
| 2026-05-09 14:23 | 8.77875 | -11.85653 | 33931 ft | 540 kts | 292° |
| 2026-05-09 14:23 | 8.80676 | -11.92694 | 33921 ft | 540 kts | 292° |
| 2026-05-09 14:24 | 8.83476 | -11.99740 | 33922 ft | 540 kts | 292° |
| 2026-05-09 14:24 | 8.86273 | -12.06780 | 33916 ft | 540 kts | 292° |
| 2026-05-09 14:25 | 8.89070 | -12.13824 | 33913 ft | 540 kts | 292° |
| 2026-05-09 14:25 | 8.91867 | -12.20871 | 33914 ft | 540 kts | 292° |
| 2026-05-09 14:26 | 8.94662 | -12.27920 | 33914 ft | 540 kts | 292° |
| 2026-05-09 14:26 | 8.97455 | -12.34968 | 33909 ft | 540 kts | 292° |
| 2026-05-09 14:27 | 9.00250 | -12.42023 | 33911 ft | 540 kts | 292° |
| 2026-05-09 14:27 | 9.02574 | -12.47894 | 33911 ft | 541 kts | 292° |
| 2026-05-09 14:28 | 9.05369 | -12.54960 | 33909 ft | 541 kts | 292° |
| 2026-05-09 14:28 | 9.09266 | -12.62858 | 33908 ft | 540 kts | 300° |
| 2026-05-09 14:29 | 9.12411 | -12.68377 | 33906 ft | 540 kts | 301° |
| 2026-05-09 14:29 | 9.16201 | -12.74896 | 33906 ft | 540 kts | 301° |
| 2026-05-09 14:30 | 9.20009 | -12.81452 | 33908 ft | 540 kts | 301° |
| 2026-05-09 14:30 | 9.23799 | -12.88007 | 33908 ft | 539 kts | 300° |
| 2026-05-09 14:31 | 9.27578 | -12.94558 | 33911 ft | 538 kts | 300° |
| 2026-05-09 14:31 | 9.31284 | -13.01131 | 33910 ft | 538 kts | 296° |
| 2026-05-09 14:32 | 9.34299 | -13.08075 | 33916 ft | 538 kts | 292° |
| 2026-05-09 14:32 | 9.37151 | -13.15079 | 33916 ft | 538 kts | 292° |
| 2026-05-09 14:33 | 9.39971 | -13.22088 | 33920 ft | 537 kts | 292° |
| 2026-05-09 14:34 | 9.48992 | -13.43472 | 33917 ft | 537 kts | 293° |
| 2026-05-09 14:35 | 9.51917 | -13.50382 | 33922 ft | 537 kts | 293° |
| 2026-05-09 14:35 | 9.54902 | -13.57310 | 33909 ft | 536 kts | 297° |
| 2026-05-09 14:36 | 9.59175 | -13.63453 | 33911 ft | 535 kts | 315° |
| 2026-05-09 14:36 | 9.64837 | -13.68331 | 33911 ft | 534 kts | 322° |
| 2026-05-09 14:37 | 9.70744 | -13.72894 | 33915 ft | 533 kts | 323° |
| 2026-05-09 14:37 | 9.76679 | -13.77428 | 33920 ft | 534 kts | 323° |
| 2026-05-09 14:38 | 9.82595 | -13.81993 | 33919 ft | 534 kts | 323° |
| 2026-05-09 14:38 | 9.88496 | -13.86577 | 33922 ft | 534 kts | 323° |
| 2026-05-09 14:39 | 9.94392 | -13.91166 | 33920 ft | 535 kts | 322° |
| 2026-05-09 14:39 | 10.00299 | -13.95767 | 33911 ft | 536 kts | 322° |
| 2026-05-09 14:40 | 10.06208 | -14.00370 | 33916 ft | 535 kts | 322° |
| 2026-05-09 14:40 | 10.12065 | -14.04950 | 33912 ft | 535 kts | 321° |
| 2026-05-09 14:41 | 10.17841 | -14.09732 | 33915 ft | 535 kts | 320° |
| 2026-05-09 14:41 | 10.23566 | -14.14566 | 33916 ft | 535 kts | 320° |
| 2026-05-09 14:42 | 10.29301 | -14.19376 | 33911 ft | 533 kts | 320° |
| 2026-05-09 14:42 | 10.35036 | -14.24157 | 33917 ft | 534 kts | 320° |
| 2026-05-09 14:43 | 10.40775 | -14.28937 | 33914 ft | 533 kts | 320° |
| 2026-05-09 14:43 | 10.46501 | -14.33709 | 33921 ft | 533 kts | 320° |
| 2026-05-09 14:44 | 10.52237 | -14.38492 | 33928 ft | 534 kts | 320° |
| 2026-05-09 14:44 | 10.57976 | -14.43281 | 33921 ft | 533 kts | 320° |
| 2026-05-09 14:45 | 10.63701 | -14.48061 | 33917 ft | 532 kts | 320° |
| 2026-05-09 14:45 | 10.69423 | -14.52840 | 33927 ft | 533 kts | 320° |
| 2026-05-09 14:46 | 10.75225 | -14.57541 | 33931 ft | 533 kts | 321° |
| 2026-05-09 14:46 | 10.81119 | -14.62111 | 33925 ft | 532 kts | 322° |
| 2026-05-09 14:47 | 10.85019 | -14.65133 | 33935 ft | 532 kts | 322° |
| 2026-05-09 14:48 | 11.04424 | -14.80354 | 33931 ft | 531 kts | 321° |
| 2026-05-09 14:49 | 11.10236 | -14.84928 | 33929 ft | 532 kts | 321° |
| 2026-05-09 14:49 | 11.15990 | -14.89717 | 33928 ft | 529 kts | 314° |
| 2026-05-09 14:50 | 11.20676 | -14.95403 | 33940 ft | 527 kts | 306° |
| 2026-05-09 14:50 | 11.25084 | -15.01375 | 33933 ft | 527 kts | 305° |
| 2026-05-09 14:51 | 11.29437 | -15.07382 | 33926 ft | 527 kts | 304° |
| 2026-05-09 14:51 | 11.33794 | -15.13377 | 33930 ft | 526 kts | 305° |
| 2026-05-09 14:52 | 11.38154 | -15.19349 | 33922 ft | 525 kts | 305° |
| 2026-05-09 14:52 | 11.42513 | -15.25314 | 33934 ft | 525 kts | 305° |
| 2026-05-09 14:53 | 11.46872 | -15.31282 | 33928 ft | 525 kts | 304° |
| 2026-05-09 14:53 | 11.51233 | -15.37257 | 33931 ft | 525 kts | 304° |
| 2026-05-09 14:54 | 11.55591 | -15.43231 | 33931 ft | 525 kts | 304° |
| 2026-05-09 14:54 | 11.59947 | -15.49209 | 33932 ft | 525 kts | 304° |
| 2026-05-09 14:55 | 11.64300 | -15.55183 | 33939 ft | 524 kts | 304° |
| 2026-05-09 14:55 | 11.68616 | -15.61112 | 33938 ft | 523 kts | 304° |
| 2026-05-09 14:56 | 11.72956 | -15.67077 | 33939 ft | 523 kts | 304° |
| 2026-05-09 14:56 | 11.77293 | -15.73041 | 33938 ft | 523 kts | 304° |
| 2026-05-09 14:57 | 11.81622 | -15.78998 | 33937 ft | 523 kts | 304° |
| 2026-05-09 14:57 | 11.85954 | -15.84963 | 33937 ft | 523 kts | 304° |
| 2026-05-09 14:58 | 11.90282 | -15.90927 | 33932 ft | 523 kts | 304° |
| 2026-05-09 14:58 | 11.94610 | -15.96893 | 33930 ft | 523 kts | 304° |
| 2026-05-09 14:59 | 11.98930 | -16.02850 | 33924 ft | 521 kts | 304° |
| 2026-05-09 14:59 | 12.03239 | -16.08797 | 33922 ft | 520 kts | 304° |
| 2026-05-09 15:00 | 12.07543 | -16.14741 | 33926 ft | 520 kts | 304° |
| 2026-05-09 15:00 | 12.11847 | -16.20688 | 33924 ft | 520 kts | 304° |
| 2026-05-09 15:01 | 12.18268 | -16.29570 | 33914 ft | 520 kts | 304° |
| 2026-05-09 15:02 | 12.22568 | -16.35521 | 33927 ft | 520 kts | 304° |
| 2026-05-09 15:02 | 12.26868 | -16.41478 | 33912 ft | 520 kts | 304° |
| 2026-05-09 15:03 | 12.31103 | -16.47481 | 33906 ft | 519 kts | 299° |
| 2026-05-09 15:03 | 12.33907 | -16.52927 | 33923 ft | 516 kts | 293° |
| 2026-05-09 15:04 | 12.36963 | -16.59569 | 33933 ft | 516 kts | 292° |
| 2026-05-09 15:06 | 12.48946 | -16.86186 | 33967 ft | 515 kts | 292° |
| 2026-05-09 15:06 | 12.51951 | -16.92839 | 33967 ft | 515 kts | 292° |
| 2026-05-09 15:07 | 12.54950 | -16.99487 | 33964 ft | 515 kts | 292° |
| 2026-05-09 15:07 | 12.57949 | -17.06140 | 33975 ft | 514 kts | 292° |
| 2026-05-09 15:08 | 12.60928 | -17.12753 | 34085 ft | 510 kts | 292° |
| 2026-05-09 15:08 | 12.65384 | -17.22656 | 34092 ft | 510 kts | 292° |
| 2026-05-09 15:10 | 12.77227 | -17.49033 | 34096 ft | 510 kts | 292° |
| 2026-05-09 15:11 | 12.80187 | -17.55637 | 34096 ft | 510 kts | 292° |
| 2026-05-09 15:11 | 12.83143 | -17.62239 | 34101 ft | 510 kts | 292° |
| 2026-05-09 15:12 | 12.86101 | -17.68848 | 34102 ft | 510 kts | 292° |
| 2026-05-09 15:12 | 12.89053 | -17.75452 | 34137 ft | 509 kts | 292° |
| 2026-05-09 15:13 | 12.92004 | -17.82056 | 34129 ft | 510 kts | 292° |
| 2026-05-09 15:13 | 12.94955 | -17.88669 | 34132 ft | 510 kts | 292° |
| 2026-05-09 15:14 | 12.97905 | -17.95282 | 34132 ft | 510 kts | 292° |
| 2026-05-09 15:14 | 13.01387 | -18.01622 | 34136 ft | 514 kts | 304° |
| 2026-05-09 15:15 | 13.05730 | -18.07456 | 34140 ft | 515 kts | 306° |
| 2026-05-09 15:15 | 13.10215 | -18.13199 | 34090 ft | 517 kts | 306° |
| 2026-05-09 15:16 | 13.14725 | -18.18956 | 34075 ft | 517 kts | 306° |
| 2026-05-09 15:16 | 13.19218 | -18.24724 | 34081 ft | 517 kts | 306° |
| 2026-05-09 15:17 | 13.23672 | -18.30467 | 34081 ft | 517 kts | 306° |
| 2026-05-09 15:17 | 13.28153 | -18.36252 | 34081 ft | 518 kts | 306° |
| 2026-05-09 15:18 | 13.32632 | -18.42037 | 34081 ft | 518 kts | 306° |
| 2026-05-09 15:18 | 13.37101 | -18.47824 | 34121 ft | 516 kts | 305° |
| 2026-05-09 15:19 | 13.41546 | -18.53623 | 34123 ft | 516 kts | 305° |
| 2026-05-09 15:19 | 13.45988 | -18.59424 | 34124 ft | 516 kts | 305° |
| 2026-05-09 15:20 | 13.52656 | -18.68124 | 34150 ft | 515 kts | 304° |
| 2026-05-09 15:21 | 13.57058 | -18.73870 | 34155 ft | 515 kts | 304° |
| 2026-05-09 15:21 | 13.61482 | -18.79649 | 34155 ft | 515 kts | 304° |
| 2026-05-09 15:22 | 13.65915 | -18.85445 | 34158 ft | 514 kts | 304° |
| 2026-05-09 15:22 | 13.70337 | -18.91229 | 34158 ft | 514 kts | 304° |
| 2026-05-09 15:23 | 13.74760 | -18.97019 | 34161 ft | 514 kts | 304° |
| 2026-05-09 15:23 | 13.79179 | -19.02807 | 34166 ft | 514 kts | 304° |
| 2026-05-09 15:24 | 13.83592 | -19.08591 | 34166 ft | 514 kts | 304° |
| 2026-05-09 15:24 | 13.88011 | -19.14388 | 34171 ft | 514 kts | 304° |
| 2026-05-09 15:25 | 13.92427 | -19.20184 | 34168 ft | 515 kts | 304° |
| 2026-05-09 15:25 | 13.96844 | -19.25986 | 34172 ft | 515 kts | 304° |
| 2026-05-09 15:26 | 14.03463 | -19.34687 | 34174 ft | 515 kts | 304° |
| 2026-05-09 15:26 | 14.07878 | -19.40497 | 34174 ft | 515 kts | 304° |
| 2026-05-09 15:27 | 14.12286 | -19.46299 | 34215 ft | 513 kts | 304° |
| 2026-05-09 15:27 | 14.16636 | -19.52028 | 34312 ft | 510 kts | 304° |
| 2026-05-09 15:28 | 14.21005 | -19.57789 | 34318 ft | 510 kts | 304° |
| 2026-05-09 15:28 | 14.25372 | -19.63553 | 34318 ft | 510 kts | 304° |
| 2026-05-09 15:29 | 14.29741 | -19.69323 | 34318 ft | 510 kts | 304° |
| 2026-05-09 15:29 | 14.34106 | -19.75091 | 34318 ft | 510 kts | 304° |
| 2026-05-09 15:30 | 14.38469 | -19.80860 | 34324 ft | 510 kts | 304° |
| 2026-05-09 15:30 | 14.42832 | -19.86633 | 34333 ft | 510 kts | 304° |
| 2026-05-09 15:31 | 14.47193 | -19.92407 | 34334 ft | 509 kts | 304° |
| 2026-05-09 15:31 | 14.51548 | -19.98178 | 34340 ft | 509 kts | 304° |
| 2026-05-09 15:32 | 14.55901 | -20.03949 | 34340 ft | 509 kts | 304° |
| 2026-05-09 15:32 | 14.60254 | -20.09726 | 34345 ft | 509 kts | 304° |
| 2026-05-09 15:33 | 14.64599 | -20.15498 | 34323 ft | 510 kts | 304° |
| 2026-05-09 15:33 | 14.68757 | -20.21417 | 34303 ft | 506 kts | 296° |
| 2026-05-09 15:34 | 14.71953 | -20.27862 | 34311 ft | 504 kts | 293° |
| 2026-05-09 15:34 | 14.74953 | -20.34427 | 34234 ft | 506 kts | 292° |
| 2026-05-09 15:35 | 14.77922 | -20.41015 | 34231 ft | 506 kts | 292° |
| 2026-05-09 15:35 | 14.80883 | -20.47556 | 34239 ft | 506 kts | 292° |
| 2026-05-09 15:36 | 14.83875 | -20.54144 | 34227 ft | 507 kts | 292° |
| 2026-05-09 15:36 | 14.86871 | -20.60733 | 34227 ft | 507 kts | 292° |
| 2026-05-09 15:37 | 14.89865 | -20.67327 | 34229 ft | 507 kts | 292° |
| 2026-05-09 15:37 | 14.92856 | -20.73921 | 34229 ft | 507 kts | 292° |
| 2026-05-09 15:38 | 14.95846 | -20.80519 | 34230 ft | 507 kts | 292° |
| 2026-05-09 15:38 | 14.98832 | -20.87118 | 34232 ft | 507 kts | 292° |
| 2026-05-09 15:39 | 15.01818 | -20.93720 | 34241 ft | 507 kts | 293° |
| 2026-05-09 15:39 | 15.04805 | -21.00330 | 34241 ft | 507 kts | 293° |
| 2026-05-09 15:40 | 15.07790 | -21.06940 | 34241 ft | 507 kts | 292° |
| 2026-05-09 15:40 | 15.10768 | -21.13543 | 34241 ft | 507 kts | 292° |
| 2026-05-09 15:41 | 15.13753 | -21.20167 | 34247 ft | 507 kts | 293° |
| 2026-05-09 15:41 | 15.16733 | -21.26787 | 34246 ft | 507 kts | 293° |
| 2026-05-09 15:42 | 15.19712 | -21.33409 | 34246 ft | 507 kts | 293° |
| 2026-05-09 15:42 | 15.22684 | -21.40022 | 34246 ft | 507 kts | 293° |
| 2026-05-09 15:43 | 15.25663 | -21.46659 | 34247 ft | 507 kts | 293° |
| 2026-05-09 15:43 | 15.28619 | -21.53249 | 34231 ft | 508 kts | 293° |
| 2026-05-09 15:44 | 15.31599 | -21.59899 | 34228 ft | 509 kts | 293° |
| 2026-05-09 15:44 | 15.34575 | -21.66547 | 34229 ft | 509 kts | 293° |
| 2026-05-09 15:45 | 15.37552 | -21.73203 | 34230 ft | 509 kts | 293° |
| 2026-05-09 15:45 | 15.40526 | -21.79859 | 34228 ft | 509 kts | 293° |
| 2026-05-09 15:46 | 15.43498 | -21.86515 | 34229 ft | 509 kts | 293° |
| 2026-05-09 15:46 | 15.46466 | -21.93170 | 34228 ft | 509 kts | 293° |
| 2026-05-09 15:47 | 15.49433 | -21.99829 | 34232 ft | 509 kts | 293° |
| 2026-05-09 15:47 | 15.52397 | -22.06487 | 34234 ft | 508 kts | 293° |
| 2026-05-09 15:48 | 15.55340 | -22.13106 | 34240 ft | 509 kts | 293° |
| 2026-05-09 15:48 | 15.58300 | -22.19769 | 34241 ft | 509 kts | 293° |
| 2026-05-09 15:49 | 15.61258 | -22.26432 | 34240 ft | 509 kts | 293° |
| 2026-05-09 15:49 | 15.64216 | -22.33102 | 34240 ft | 509 kts | 293° |
| 2026-05-09 15:50 | 15.67174 | -22.39780 | 34241 ft | 509 kts | 292° |
| 2026-05-09 15:50 | 15.69627 | -22.45323 | 34241 ft | 509 kts | 292° |
| 2026-05-09 15:51 | 15.72582 | -22.52004 | 34249 ft | 509 kts | 292° |
| 2026-05-09 15:51 | 15.75533 | -22.58686 | 34249 ft | 509 kts | 292° |
| 2026-05-09 15:52 | 15.79954 | -22.68705 | 34252 ft | 509 kts | 292° |
| 2026-05-09 15:53 | 15.82906 | -22.75402 | 34256 ft | 509 kts | 292° |
| 2026-05-09 15:53 | 15.85850 | -22.82089 | 34213 ft | 510 kts | 292° |
| 2026-05-09 15:54 | 15.88801 | -22.88799 | 34211 ft | 511 kts | 292° |
| 2026-05-09 15:54 | 15.91752 | -22.95515 | 34216 ft | 511 kts | 292° |
| 2026-05-09 15:55 | 15.94699 | -23.02229 | 34212 ft | 511 kts | 292° |
| 2026-05-09 15:55 | 15.97648 | -23.08954 | 34212 ft | 511 kts | 292° |
| 2026-05-09 15:56 | 16.00576 | -23.15638 | 34215 ft | 511 kts | 292° |
| 2026-05-09 15:56 | 16.03518 | -23.22362 | 34216 ft | 511 kts | 292° |
| 2026-05-09 15:57 | 16.06461 | -23.29092 | 34221 ft | 511 kts | 292° |
| 2026-05-09 15:57 | 16.09399 | -23.35820 | 34220 ft | 511 kts | 292° |
| 2026-05-09 15:58 | 16.12335 | -23.42548 | 34226 ft | 511 kts | 292° |
| 2026-05-09 15:58 | 16.15268 | -23.49277 | 34229 ft | 511 kts | 292° |
| 2026-05-09 15:59 | 16.18201 | -23.56014 | 34229 ft | 511 kts | 292° |
| 2026-05-09 15:59 | 16.21132 | -23.62752 | 34232 ft | 511 kts | 292° |
| 2026-05-09 16:00 | 16.24059 | -23.69489 | 34232 ft | 511 kts | 292° |
| 2026-05-09 16:00 | 16.26986 | -23.76230 | 34231 ft | 511 kts | 292° |
| 2026-05-09 16:01 | 16.29913 | -23.82982 | 34233 ft | 511 kts | 292° |
| 2026-05-09 16:01 | 16.32836 | -23.89730 | 34239 ft | 511 kts | 292° |
| 2026-05-09 16:02 | 16.35759 | -23.96483 | 34238 ft | 511 kts | 292° |
| 2026-05-09 16:02 | 16.40137 | -24.06613 | 34236 ft | 511 kts | 292° |
| 2026-05-09 16:03 | 16.43035 | -24.13327 | 34235 ft | 511 kts | 292° |
| 2026-05-09 16:03 | 16.45950 | -24.20087 | 34235 ft | 511 kts | 292° |
| 2026-05-09 16:04 | 16.48861 | -24.26846 | 34232 ft | 511 kts | 292° |
| 2026-05-09 16:04 | 16.51770 | -24.33608 | 34239 ft | 512 kts | 292° |
| 2026-05-09 16:05 | 16.54680 | -24.40378 | 34234 ft | 511 kts | 292° |
| 2026-05-09 16:05 | 16.57584 | -24.47142 | 34232 ft | 511 kts | 292° |
| 2026-05-09 16:06 | 16.60487 | -24.53908 | 34227 ft | 511 kts | 292° |
| 2026-05-09 16:06 | 16.63387 | -24.60677 | 34229 ft | 511 kts | 292° |
| 2026-05-09 16:07 | 16.66284 | -24.67446 | 34227 ft | 511 kts | 292° |
| 2026-05-09 16:07 | 16.69180 | -24.74217 | 34230 ft | 511 kts | 292° |
| 2026-05-09 16:08 | 16.72071 | -24.80988 | 34225 ft | 511 kts | 292° |
| 2026-05-09 16:08 | 16.74939 | -24.87710 | 34222 ft | 510 kts | 292° |
| 2026-05-09 16:09 | 16.77827 | -24.94487 | 34223 ft | 510 kts | 292° |
| 2026-05-09 16:09 | 16.80709 | -25.01256 | 34228 ft | 510 kts | 292° |
| 2026-05-09 16:10 | 16.83409 | -25.08088 | 34266 ft | 508 kts | 288° |
| 2026-05-09 16:10 | 16.85730 | -25.15050 | 34264 ft | 508 kts | 287° |
| 2026-05-09 16:11 | 16.87985 | -25.22034 | 34273 ft | 507 kts | 287° |
| 2026-05-09 16:11 | 16.90231 | -25.29018 | 34282 ft | 507 kts | 287° |
| 2026-05-09 16:12 | 16.92481 | -25.36002 | 34284 ft | 507 kts | 287° |
| 2026-05-09 16:12 | 16.94733 | -25.42986 | 34280 ft | 507 kts | 287° |
| 2026-05-09 16:13 | 16.96984 | -25.49972 | 34281 ft | 507 kts | 287° |
| 2026-05-09 16:13 | 16.99233 | -25.56963 | 34303 ft | 507 kts | 287° |
| 2026-05-09 16:14 | 17.01480 | -25.63955 | 34304 ft | 507 kts | 287° |
| 2026-05-09 16:14 | 17.03720 | -25.70936 | 34323 ft | 506 kts | 287° |
| 2026-05-09 16:15 | 17.05940 | -25.77866 | 34323 ft | 506 kts | 287° |
| 2026-05-09 16:15 | 17.08173 | -25.84842 | 34329 ft | 506 kts | 287° |
| 2026-05-09 16:16 | 17.10402 | -25.91815 | 34329 ft | 506 kts | 287° |
| 2026-05-09 16:16 | 17.12627 | -25.98789 | 34356 ft | 505 kts | 287° |
| 2026-05-09 16:17 | 17.14847 | -26.05750 | 34365 ft | 504 kts | 287° |
| 2026-05-09 16:17 | 17.17060 | -26.12704 | 34369 ft | 504 kts | 287° |
| 2026-05-09 16:18 | 17.19274 | -26.19668 | 34371 ft | 504 kts | 287° |
| 2026-05-09 16:18 | 17.21484 | -26.26629 | 34375 ft | 504 kts | 287° |
| 2026-05-09 16:19 | 17.23682 | -26.33562 | 34470 ft | 501 kts | 287° |
| 2026-05-09 16:19 | 17.25871 | -26.40474 | 34484 ft | 501 kts | 287° |
| 2026-05-09 16:20 | 17.28061 | -26.47397 | 34483 ft | 501 kts | 287° |
| 2026-05-09 16:20 | 17.30231 | -26.54269 | 34483 ft | 501 kts | 287° |
| 2026-05-09 16:21 | 17.32411 | -26.61180 | 34532 ft | 499 kts | 287° |
| 2026-05-09 16:21 | 17.34582 | -26.68073 | 34536 ft | 499 kts | 287° |
| 2026-05-09 16:22 | 17.36750 | -26.74964 | 34536 ft | 499 kts | 287° |
| 2026-05-09 16:22 | 17.38917 | -26.81859 | 34539 ft | 499 kts | 287° |
| 2026-05-09 16:23 | 17.41079 | -26.88754 | 34569 ft | 497 kts | 288° |
| 2026-05-09 16:23 | 17.43229 | -26.95613 | 34660 ft | 495 kts | 288° |
| 2026-05-09 16:24 | 17.45374 | -27.02468 | 34658 ft | 495 kts | 288° |
| 2026-05-09 16:24 | 17.47518 | -27.09328 | 34681 ft | 494 kts | 287° |
| 2026-05-09 16:25 | 17.49652 | -27.16164 | 34692 ft | 494 kts | 287° |
| 2026-05-09 16:25 | 17.51776 | -27.22977 | 34798 ft | 490 kts | 287° |
| 2026-05-09 16:26 | 17.53890 | -27.29769 | 34800 ft | 490 kts | 287° |
| 2026-05-09 16:26 | 17.55988 | -27.36521 | 34803 ft | 490 kts | 287° |
| 2026-05-09 16:27 | 17.58097 | -27.43315 | 34803 ft | 490 kts | 287° |
| 2026-05-09 16:27 | 17.60204 | -27.50112 | 34832 ft | 489 kts | 287° |
| 2026-05-09 16:28 | 17.62303 | -27.56889 | 34851 ft | 489 kts | 287° |
| 2026-05-09 16:28 | 17.64399 | -27.63669 | 34848 ft | 489 kts | 287° |
| 2026-05-09 16:29 | 17.66492 | -27.70446 | 34843 ft | 489 kts | 287° |
| 2026-05-09 16:29 | 17.68581 | -27.77219 | 34878 ft | 488 kts | 287° |
| 2026-05-09 16:30 | 17.70661 | -27.83973 | 34932 ft | 486 kts | 287° |
| 2026-05-09 16:30 | 17.72735 | -27.90717 | 34934 ft | 486 kts | 287° |
| 2026-05-09 16:31 | 17.74807 | -27.97465 | 34933 ft | 486 kts | 287° |
| 2026-05-09 16:31 | 17.76878 | -28.04216 | 34936 ft | 486 kts | 287° |
| 2026-05-09 16:32 | 17.78596 | -28.09823 | 34949 ft | 485 kts | 286° |
| 2026-05-09 16:32 | 17.81003 | -28.17689 | 34978 ft | 484 kts | 286° |
| 2026-05-09 16:33 | 17.83057 | -28.24417 | 34979 ft | 484 kts | 286° |
| 2026-05-09 16:33 | 17.85110 | -28.31147 | 34981 ft | 484 kts | 286° |
| 2026-05-09 16:34 | 17.87147 | -28.37832 | 34978 ft | 484 kts | 286° |
| 2026-05-09 16:34 | 17.89196 | -28.44564 | 34999 ft | 483 kts | 286° |
| 2026-05-09 16:35 | 17.91239 | -28.51288 | 35000 ft | 483 kts | 286° |
| 2026-05-09 16:35 | 17.92948 | -28.56922 | 35003 ft | 483 kts | 286° |
| 2026-05-09 16:36 | 17.97351 | -28.71461 | 35024 ft | 482 kts | 286° |
| 2026-05-09 16:37 | 17.99037 | -28.77039 | 35025 ft | 482 kts | 286° |
| 2026-05-09 16:37 | 18.01065 | -28.83759 | 35027 ft | 482 kts | 286° |
| 2026-05-09 16:38 | 18.03089 | -28.90473 | 35029 ft | 482 kts | 286° |
| 2026-05-09 16:38 | 18.05110 | -28.97186 | 35032 ft | 482 kts | 285° |
| 2026-05-09 16:39 | 18.07128 | -29.03901 | 35037 ft | 481 kts | 285° |
| 2026-05-09 16:39 | 18.09143 | -29.10611 | 35054 ft | 481 kts | 285° |
| 2026-05-09 16:40 | 18.11152 | -29.17314 | 35058 ft | 481 kts | 285° |
| 2026-05-09 16:42 | 18.19156 | -29.44109 | 35061 ft | 480 kts | 285° |
| 2026-05-09 16:42 | 18.21138 | -29.50766 | 35059 ft | 480 kts | 285° |
| 2026-05-09 16:43 | 18.23130 | -29.57466 | 35070 ft | 479 kts | 285° |
| 2026-05-09 16:43 | 18.25116 | -29.64156 | 35070 ft | 479 kts | 285° |
| 2026-05-09 16:44 | 18.27102 | -29.70853 | 35084 ft | 479 kts | 285° |
| 2026-05-09 16:44 | 18.29078 | -29.77528 | 35138 ft | 477 kts | 285° |
| 2026-05-09 16:45 | 18.31049 | -29.84198 | 35143 ft | 477 kts | 284° |
| 2026-05-09 16:45 | 18.33019 | -29.90870 | 35135 ft | 477 kts | 284° |
| 2026-05-09 16:46 | 18.34986 | -29.97546 | 35140 ft | 477 kts | 284° |
| 2026-05-09 16:46 | 18.36952 | -30.04224 | 35141 ft | 477 kts | 284° |
| 2026-05-09 16:47 | 18.38902 | -30.10857 | 35138 ft | 477 kts | 284° |
| 2026-05-09 16:47 | 18.40862 | -30.17532 | 35141 ft | 477 kts | 284° |
| 2026-05-09 16:48 | 18.42818 | -30.24207 | 35151 ft | 477 kts | 284° |
| 2026-05-09 16:48 | 18.44773 | -30.30883 | 35148 ft | 477 kts | 284° |
| 2026-05-09 16:49 | 18.46724 | -30.37557 | 35201 ft | 475 kts | 284° |
| 2026-05-09 16:50 | 18.49632 | -30.47523 | 35255 ft | 474 kts | 284° |
| 2026-05-09 16:50 | 18.51564 | -30.54158 | 35257 ft | 474 kts | 284° |
| 2026-05-09 16:51 | 18.53493 | -30.60791 | 35248 ft | 474 kts | 284° |
| 2026-05-09 16:51 | 18.55420 | -30.67427 | 35249 ft | 474 kts | 284° |
| 2026-05-09 16:52 | 18.57344 | -30.74059 | 35280 ft | 472 kts | 284° |
| 2026-05-09 16:52 | 18.59261 | -30.80680 | 35280 ft | 472 kts | 284° |
| 2026-05-09 16:53 | 18.61177 | -30.87306 | 35277 ft | 472 kts | 284° |
| 2026-05-09 16:53 | 18.63091 | -30.93933 | 35276 ft | 472 kts | 284° |
| 2026-05-09 16:54 | 18.65002 | -31.00559 | 35286 ft | 472 kts | 284° |
| 2026-05-09 16:54 | 18.66896 | -31.07138 | 35292 ft | 472 kts | 283° |
| 2026-05-09 16:55 | 18.68800 | -31.13760 | 35293 ft | 471 kts | 283° |
| 2026-05-09 16:55 | 18.70700 | -31.20378 | 35293 ft | 471 kts | 283° |
| 2026-05-09 16:56 | 18.72599 | -31.26999 | 35295 ft | 471 kts | 283° |
| 2026-05-09 16:56 | 18.74495 | -31.33622 | 35291 ft | 471 kts | 283° |
| 2026-05-09 16:57 | 18.76387 | -31.40241 | 35287 ft | 471 kts | 283° |
| 2026-05-09 16:57 | 18.78278 | -31.46868 | 35286 ft | 471 kts | 283° |
| 2026-05-09 16:58 | 18.80166 | -31.53491 | 35297 ft | 471 kts | 283° |
| 2026-05-09 16:58 | 18.82049 | -31.60105 | 35361 ft | 469 kts | 283° |
| 2026-05-09 16:59 | 18.83922 | -31.66692 | 35382 ft | 468 kts | 283° |
| 2026-05-09 16:59 | 18.85789 | -31.73275 | 35382 ft | 468 kts | 283° |
| 2026-05-09 17:00 | 18.87644 | -31.79822 | 35385 ft | 468 kts | 283° |
| 2026-05-09 17:00 | 18.89507 | -31.86405 | 35405 ft | 468 kts | 283° |
| 2026-05-09 17:01 | 18.91365 | -31.92981 | 35404 ft | 467 kts | 283° |
| 2026-05-09 17:01 | 18.93222 | -31.99562 | 35405 ft | 467 kts | 283° |
| 2026-05-09 17:02 | 18.95076 | -32.06144 | 35404 ft | 467 kts | 283° |
| 2026-05-09 17:02 | 18.96923 | -32.12707 | 35458 ft | 466 kts | 283° |
| 2026-05-09 17:03 | 18.98767 | -32.19273 | 35456 ft | 466 kts | 283° |
| 2026-05-09 17:04 | 19.05158 | -32.42104 | 35604 ft | 462 kts | 283° |
| 2026-05-09 17:05 | 19.06066 | -32.45356 | 35602 ft | 462 kts | 283° |
| 2026-05-09 17:05 | 19.07881 | -32.51867 | 35602 ft | 462 kts | 283° |
| 2026-05-09 17:06 | 19.09690 | -32.58363 | 35605 ft | 461 kts | 283° |
| 2026-05-09 17:06 | 19.11503 | -32.64885 | 35604 ft | 461 kts | 283° |
| 2026-05-09 17:07 | 19.13298 | -32.71352 | 35604 ft | 461 kts | 283° |
| 2026-05-09 17:07 | 19.15104 | -32.77865 | 35604 ft | 461 kts | 283° |
| 2026-05-09 17:08 | 19.16907 | -32.84382 | 35617 ft | 462 kts | 282° |
| 2026-05-09 17:08 | 19.19612 | -32.94173 | 35608 ft | 463 kts | 282° |
| 2026-05-09 17:09 | 19.21415 | -33.00715 | 35605 ft | 463 kts | 282° |
| 2026-05-09 17:09 | 19.23217 | -33.07260 | 35605 ft | 463 kts | 282° |
| 2026-05-09 17:10 | 19.25018 | -33.13809 | 35606 ft | 463 kts | 282° |
| 2026-05-09 17:10 | 19.26816 | -33.20360 | 35606 ft | 464 kts | 282° |
| 2026-05-09 17:11 | 19.28613 | -33.26917 | 35608 ft | 464 kts | 282° |
| 2026-05-09 17:11 | 19.30409 | -33.33478 | 35611 ft | 464 kts | 282° |
| 2026-05-09 17:12 | 19.32201 | -33.40039 | 35611 ft | 464 kts | 282° |
| 2026-05-09 17:12 | 19.33986 | -33.46578 | 35695 ft | 462 kts | 281° |
| 2026-05-09 17:13 | 19.35766 | -33.53112 | 35692 ft | 462 kts | 281° |
| 2026-05-09 17:13 | 19.37536 | -33.59648 | 35692 ft | 461 kts | 281° |
| 2026-05-09 17:14 | 19.39240 | -33.66200 | 35699 ft | 461 kts | 280° |
| 2026-05-09 17:14 | 19.40913 | -33.72708 | 35698 ft | 461 kts | 280° |
| 2026-05-09 17:15 | 19.42605 | -33.79267 | 35695 ft | 462 kts | 280° |
| 2026-05-09 17:15 | 19.44302 | -33.85825 | 35697 ft | 462 kts | 280° |
| 2026-05-09 17:17 | 19.51065 | -34.12041 | 35795 ft | 460 kts | 279° |
| 2026-05-09 17:18 | 19.52732 | -34.18535 | 35795 ft | 460 kts | 279° |
| 2026-05-09 17:18 | 19.54409 | -34.25075 | 35791 ft | 460 kts | 279° |
| 2026-05-09 17:19 | 19.56082 | -34.31609 | 35795 ft | 459 kts | 279° |
| 2026-05-09 17:19 | 19.57753 | -34.38150 | 35797 ft | 459 kts | 279° |
| 2026-05-09 17:20 | 19.59423 | -34.44692 | 35794 ft | 459 kts | 279° |
| 2026-05-09 17:20 | 19.61088 | -34.51229 | 35797 ft | 459 kts | 279° |
| 2026-05-09 17:21 | 19.62751 | -34.57765 | 35795 ft | 459 kts | 279° |
| 2026-05-09 17:21 | 19.64406 | -34.64278 | 35938 ft | 455 kts | 279° |
| 2026-05-09 17:22 | 19.66039 | -34.70715 | 35961 ft | 455 kts | 279° |
| 2026-05-09 17:22 | 19.67678 | -34.77199 | 35959 ft | 455 kts | 279° |
| 2026-05-09 17:23 | 19.69316 | -34.83679 | 35959 ft | 454 kts | 279° |
| 2026-05-09 17:23 | 19.70950 | -34.90156 | 35959 ft | 454 kts | 279° |
| 2026-05-09 17:25 | 19.75839 | -35.09598 | 35963 ft | 454 kts | 279° |
| 2026-05-09 17:25 | 19.77463 | -35.16076 | 35963 ft | 454 kts | 279° |
| 2026-05-09 17:26 | 19.79081 | -35.22539 | 36065 ft | 451 kts | 279° |
| 2026-05-09 17:26 | 19.80420 | -35.27895 | 36085 ft | 451 kts | 279° |
| 2026-05-09 17:27 | 19.82025 | -35.34332 | 36087 ft | 451 kts | 279° |
| 2026-05-09 17:27 | 19.83890 | -35.41822 | 36088 ft | 451 kts | 279° |
| 2026-05-09 17:28 | 19.85233 | -35.47226 | 36090 ft | 451 kts | 279° |
| 2026-05-09 17:28 | 19.86833 | -35.53667 | 36087 ft | 451 kts | 279° |
| 2026-05-09 17:29 | 19.88431 | -35.60117 | 36088 ft | 451 kts | 279° |
| 2026-05-09 17:29 | 19.90016 | -35.66519 | 36089 ft | 451 kts | 279° |
| 2026-05-09 17:30 | 19.91609 | -35.72968 | 36086 ft | 451 kts | 279° |
| 2026-05-09 17:30 | 19.93197 | -35.79403 | 36123 ft | 448 kts | 279° |
| 2026-05-09 17:31 | 19.94769 | -35.85778 | 36124 ft | 444 kts | 279° |